地図

経路データ

SID SEASON NUMBER BASIN SUBBASIN NAME ISO_TIME NATURE LAT LON WMO_WIND WMO_PRES WMO_AGENCY TRACK_TYPE DIST2LAND LANDFALL IFLAG USA_AGENCY USA_ATCF_ID USA_LAT USA_LON USA_RECORD USA_STATUS USA_WIND USA_PRES USA_SSHS USA_R34_NE USA_R34_SE USA_R34_SW USA_R34_NW USA_R50_NE USA_R50_SE USA_R50_SW USA_R50_NW USA_R64_NE USA_R64_SE USA_R64_SW USA_R64_NW USA_POCI USA_ROCI USA_RMW USA_EYE TOKYO_LAT TOKYO_LON TOKYO_GRADE TOKYO_WIND TOKYO_PRES TOKYO_R50_DIR TOKYO_R50_LONG TOKYO_R50_SHORT TOKYO_R30_DIR TOKYO_R30_LONG TOKYO_R30_SHORT TOKYO_LAND CMA_LAT CMA_LON CMA_CAT CMA_WIND CMA_PRES HKO_LAT HKO_LON HKO_CAT HKO_WIND HKO_PRES NEWDELHI_LAT NEWDELHI_LON NEWDELHI_GRADE NEWDELHI_WIND NEWDELHI_PRES NEWDELHI_CI NEWDELHI_DP NEWDELHI_POCI REUNION_LAT REUNION_LON REUNION_TYPE REUNION_WIND REUNION_PRES REUNION_TNUM REUNION_CI REUNION_RMW REUNION_R34_NE REUNION_R34_SE REUNION_R34_SW REUNION_R34_NW REUNION_R50_NE REUNION_R50_SE REUNION_R50_SW REUNION_R50_NW REUNION_R64_NE REUNION_R64_SE REUNION_R64_SW REUNION_R64_NW BOM_LAT BOM_LON BOM_TYPE BOM_WIND BOM_PRES BOM_TNUM BOM_CI BOM_RMW BOM_R34_NE BOM_R34_SE BOM_R34_SW BOM_R34_NW BOM_R50_NE BOM_R50_SE BOM_R50_SW BOM_R50_NW BOM_R64_NE BOM_R64_SE BOM_R64_SW BOM_R64_NW BOM_ROCI BOM_POCI BOM_EYE BOM_POS_METHOD BOM_PRES_METHOD NADI_LAT NADI_LON NADI_CAT NADI_WIND NADI_PRES WELLINGTON_LAT WELLINGTON_LON WELLINGTON_WIND WELLINGTON_PRES DS824_LAT DS824_LON DS824_STAGE DS824_WIND DS824_PRES TD9636_LAT TD9636_LON TD9636_STAGE TD9636_WIND TD9636_PRES TD9635_LAT TD9635_LON TD9635_WIND TD9635_PRES TD9635_ROCI NEUMANN_LAT NEUMANN_LON NEUMANN_CLASS NEUMANN_WIND NEUMANN_PRES MLC_LAT MLC_LON MLC_CLASS MLC_WIND MLC_PRES USA_GUST BOM_GUST BOM_GUST_PER REUNION_GUST REUNION_GUST_PER USA_SEAHGT USA_SEARAD_NE USA_SEARAD_SE USA_SEARAD_SW USA_SEARAD_NW STORM_SPEED STORM_DIR
1901070S10062 1901 14 SI MM NOT_NAMED 1901-03-11 06:00:00 NR -10.1000 62.0000 reunion spur-split 1210 1206 _____O________ -1 -10.1000 62.0000 99 9.90000 2 243
1901070S10062 1901 14 SI MM NOT_NAMED 1901-03-11 09:00:00 NR -10.1510 61.8986 spur-split 1196 1192 _____P________ -1 -10.1510 61.8986 99 2 243
1901070S10062 1901 14 SI MM NOT_NAMED 1901-03-11 12:00:00 NR -10.2030 61.7937 spur-split 1192 1177 _____P________ -1 -10.2030 61.7937 99 2 243
1901070S10062 1901 14 SI MM NOT_NAMED 1901-03-11 15:00:00 NR -10.2573 61.6820 spur-split 1177 1173 _____P________ -1 -10.2573 61.6820 99 3 244
1901070S10062 1901 14 SI MM NOT_NAMED 1901-03-11 18:00:00 NR -10.3148 61.5600 spur-split 1173 1155 _____P________ -1 -10.3148 61.5600 99 3 245
1901070S10062 1901 14 SI MM NOT_NAMED 1901-03-11 21:00:00 NR -10.3768 61.4242 spur-split 1155 1152 _____P________ -1 -10.3768 61.4242 99 3 246
1901070S10062 1901 14 SI MM NOT_NAMED 1901-03-12 00:00:00 NR -10.4442 61.2712 spur-split 1152 1134 _____P________ -1 -10.4442 61.2712 99 4 246
1901070S10062 1901 14 SI MM NOT_NAMED 1901-03-12 03:00:00 NR -10.5183 61.0977 spur-split 1134 1117 _____P________ -1 -10.5183 61.0977 99 4 247
1901070S10062 1901 14 SI MM NOT_NAMED 1901-03-12 06:00:00 NR -10.6000 60.9000 reunion spur-split 1117 1100 _____O________ -1 -10.6000 60.9000 99 9.90000 4 248
1901070S10062 1901 14 SI MM NOT_NAMED 1901-03-12 09:00:00 NR -10.6901 60.6759 spur-split 1100 1080 _____P________ -1 -10.6901 60.6759 99 5 248
1901070S10062 1901 14 SI MM NOT_NAMED 1901-03-12 12:00:00 NR -10.7882 60.4274 spur-split 1080 1063 _____P________ -1 -10.7882 60.4274 99 5 248
1901070S10062 1901 14 SI MM NOT_NAMED 1901-03-12 15:00:00 NR -10.8934 60.1576 spur-split 1063 1045 _____P________ -1 -10.8934 60.1576 99 6 248
1901070S10062 1901 14 SI MM NOT_NAMED 1901-03-12 18:00:00 NR -11.0050 59.8697 spur-split 1045 1027 _____P________ -1 -11.0050 59.8697 99 6 248
1901070S10062 1901 14 SI MM NOT_NAMED 1901-03-12 21:00:00 NR -11.1223 59.5668 spur-split 1027 1010 _____P________ -1 -11.1223 59.5668 99 7 248
1901070S10062 1901 14 SI MM NOT_NAMED 1901-03-13 00:00:00 NR -11.2443 59.2522 spur-split 1010 982 _____P________ -1 -11.2443 59.2522 99 7 248
1901070S10062 1901 14 SI MM NOT_NAMED 1901-03-13 03:00:00 NR -11.3705 58.9288 spur-split 982 957 _____P________ -1 -11.3705 58.9288 99 7 248
1901070S10062 1901 14 SI MM NOT_NAMED 1901-03-13 06:00:00 NR -11.5000 58.6000 reunion spur-split 957 923 _____O________ -1 -11.5000 58.6000 99 9.90000 7 248
1901070S10062 1901 14 SI MM NOT_NAMED 1901-03-13 09:00:00 NR -11.6222 58.2922 spur-split 923 888 _____P________ -1 -11.6222 58.2922 99 7 248
1901070S10062 1901 14 SI MM NOT_NAMED 1901-03-13 12:00:00 NR -11.7479 57.9774 spur-split 888 851 _____P________ -1 -11.7479 57.9774 99 7 248
1901070S10062 1901 14 SI MM NOT_NAMED 1901-03-13 15:00:00 NR -11.8775 57.6549 spur-split 851 806 _____P________ -1 -11.8775 57.6549 99 7 248
1901070S10062 1901 14 SI MM NOT_NAMED 1901-03-13 18:00:00 NR -12.0116 57.3238 spur-split 806 771 _____P________ -1 -12.0116 57.3238 99 7 247
1901070S10062 1901 14 SI MM NOT_NAMED 1901-03-13 21:00:00 NR -12.1504 56.9836 spur-split 769 734 _____P________ -1 -12.1504 56.9836 99 7 247
1901070S10062 1901 14 SI MM NOT_NAMED 1901-03-14 00:00:00 NR -12.2945 56.6334 spur-split 724 689 _____P________ -1 -12.2945 56.6334 99 8 247
1901070S10062 1901 14 SI MM NOT_NAMED 1901-03-14 03:00:00 NR -12.4442 56.2725 spur-split 689 642 _____P________ -1 -12.4442 56.2725 99 8 247
1901070S10062 1901 14 SI MM NOT_NAMED 1901-03-14 06:00:00 NR -12.6000 55.9000 reunion spur-split 642 595 _____O________ -1 -12.6000 55.9000 99 9.90000 8 247
1901070S10062 1901 14 SI MM NOT_NAMED 1901-03-14 09:00:00 NR -12.7709 55.5005 spur-split 595 550 _____P________ -1 -12.7709 55.5005 99 9 246
1901070S10062 1901 14 SI MM NOT_NAMED 1901-03-14 12:00:00 NR -12.9493 55.0864 spur-split 550 503 _____P________ -1 -12.9493 55.0864 99 9 246
1901070S10062 1901 14 SI MM NOT_NAMED 1901-03-14 15:00:00 NR -13.1320 54.6631 spur-split 503 457 _____P________ -1 -13.1320 54.6631 99 9 246
1901070S10062 1901 14 SI MM NOT_NAMED 1901-03-14 18:00:00 NR -13.3158 54.2361 spur-split 446 401 _____P________ -1 -13.3158 54.2361 99 9 246
1901070S10062 1901 14 SI MM NOT_NAMED 1901-03-14 21:00:00 NR -13.4976 53.8107 spur-split 401 354 _____P________ -1 -13.4976 53.8107 99 9 246
1901070S10062 1901 14 SI MM NOT_NAMED 1901-03-15 00:00:00 NR -13.6743 53.3926 spur-split 354 311 _____P________ -1 -13.6743 53.3926 99 9 247
1901070S10062 1901 14 SI MM NOT_NAMED 1901-03-15 03:00:00 NR -13.8428 52.9871 spur-split 311 262 _____P________ -1 -13.8428 52.9871 99 8 247
1901070S10062 1901 14 SI MM NOT_NAMED 1901-03-15 06:00:00 NR -14.0000 52.6000 reunion spur-split 262 229 _____O________ -1 -14.0000 52.6000 99 9.90000 7 248
1901070S10062 1901 14 SI MM NOT_NAMED 1901-03-15 09:00:00 NR -14.1210 52.2757 spur-split 229 196 _____P________ -1 -14.1210 52.2757 99 7 249
1901070S10062 1901 14 SI MM NOT_NAMED 1901-03-15 12:00:00 NR -14.2300 51.9718 spur-split 196 163 _____P________ -1 -14.2300 51.9718 99 6 250
1901070S10062 1901 14 SI MM NOT_NAMED 1901-03-15 15:00:00 NR -14.3318 51.6799 spur-split 163 130 _____P________ -1 -14.3318 51.6799 99 6 250
1901070S10062 1901 14 SI MM NOT_NAMED 1901-03-15 18:00:00 NR -14.4313 51.3913 spur-split 130 97 _____P________ -1 -14.4313 51.3913 99 6 250
1901070S10062 1901 14 SI MM NOT_NAMED 1901-03-15 21:00:00 NR -14.5332 51.0976 spur-split 97 63 _____P________ -1 -14.5332 51.0976 99 6 250
1901070S10062 1901 14 SI MM NOT_NAMED 1901-03-16 00:00:00 NR -14.6422 50.7903 spur-split 63 24 _____P________ -1 -14.6422 50.7903 99 7 250
1901070S10062 1901 14 SI MM NOT_NAMED 1901-03-16 03:00:00 NR -14.7629 50.4606 spur-split 24 0 _____P________ -1 -14.7629 50.4606 99 7 249
1901070S10062 1901 14 SI MM NOT_NAMED 1901-03-16 06:00:00 NR -14.9000 50.1000 reunion spur-split 0 0 _____O________ -1 -14.9000 50.1000 99 9.90000 9 248
1901070S10062 1901 14 SI MM NOT_NAMED 1901-03-16 09:00:00 NR -15.0922 49.6240 spur-split 0 0 _____P________ -1 -15.0922 49.6240 99 10 247
1901070S10062 1901 14 SI MM NOT_NAMED 1901-03-16 12:00:00 NR -15.3018 49.1114 spur-split 0 0 _____P________ -1 -15.3018 49.1114 99 11 247
1901070S10062 1901 14 SI MM NOT_NAMED 1901-03-16 15:00:00 NR -15.5212 48.5787 spur-split 0 0 _____P________ -1 -15.5212 48.5787 99 11 247
1901070S10062 1901 14 SI MM NOT_NAMED 1901-03-16 18:00:00 NR -15.7426 48.0425 spur-split 0 0 _____P________ -1 -15.7426 48.0425 99 11 247
1901070S10062 1901 14 SI MM NOT_NAMED 1901-03-16 21:00:00 NR -15.9584 47.5195 spur-split 0 0 _____P________ -1 -15.9584 47.5195 99 11 247
1901070S10062 1901 14 SI MM NOT_NAMED 1901-03-17 00:00:00 NR -16.1614 47.0267 spur-split 0 0 _____P________ -1 -16.1614 47.0267 99 10 247
1901070S10062 1901 14 SI MM NOT_NAMED 1901-03-17 03:00:00 NR -16.3443 46.5812 spur-split 0 0 _____P________ -1 -16.3443 46.5812 99 9 247
1901070S10062 1901 14 SI MM NOT_NAMED 1901-03-17 06:00:00 NR -16.5000 46.2000 reunion spur-split 0 0 _____O________ -1 -16.5000 46.2000 99 9.90000 7 247
1901070S10062 1901 14 SI MM NOT_NAMED 1901-03-17 09:00:00 NR -16.6235 45.8959 spur-split 0 0 _____P________ -1 -16.6235 45.8959 99 6 247
1901070S10062 1901 14 SI MM NOT_NAMED 1901-03-17 12:00:00 NR -16.7173 45.6632 spur-split 0 0 _____P________ -1 -16.7173 45.6632 99 4 247
1901070S10062 1901 14 SI MM NOT_NAMED 1901-03-17 15:00:00 NR -16.7860 45.4920 spur-split 0 0 _____P________ -1 -16.7860 45.4920 99 3 247
1901070S10062 1901 14 SI MM NOT_NAMED 1901-03-17 18:00:00 NR -16.8337 45.3720 spur-split 0 0 _____P________ -1 -16.8337 45.3720 99 2 247
1901070S10062 1901 14 SI MM NOT_NAMED 1901-03-17 21:00:00 NR -16.8648 45.2931 spur-split 0 0 _____P________ -1 -16.8648 45.2931 99 1 248
1901070S10062 1901 14 SI MM NOT_NAMED 1901-03-18 00:00:00 NR -16.8835 45.2450 spur-split 0 0 _____P________ -1 -16.8835 45.2450 99 1 249
1901070S10062 1901 14 SI MM NOT_NAMED 1901-03-18 03:00:00 NR -16.8938 45.2173 spur-split 0 0 _____P________ -1 -16.8938 45.2173 99 0 245
1901070S10062 1901 14 SI MM NOT_NAMED 1901-03-18 06:00:00 NR -16.9000 45.2000 reunion spur-split 0 _____O________ -1 -16.9000 45.2000 99 9.90000 0 0

IBTrACS Databaseについて

本データベースは、米国NOAAが公開する1842年以降の世界の熱帯低気圧のベストトラックデータアーカイブInternational Best Track Archive for Climate Stewardship (IBTrACS)を、ウェブで閲覧しやすい形式に変換したものです。

最終更新日:2021-10-27